Time;durP1;ratioP1;P1;durP2;ratioP2;P2;SDS_P1;SDS_P2;PMS_P1;PMS_P2;Temp;Humidity;BMP_temperature;BMP_pressure;BME280_temperature;BME280_humidity;BME280_pressure;Samples;Min_cycle;Max_cycle;Signal;HPM_P1;HPM_P2
2022/01/21 05:00:22;;;;;;;11.60;4.90;;;1.70;99.90;;;;;;6067355;23;20795;-65
2022/01/21 05:02:49;;;;;;;12.17;4.60;;;1.70;99.90;;;;;;5015809;28;20462;-65
2022/01/21 05:05:15;;;;;;;8.70;5.07;;;1.70;99.90;;;;;;5016139;28;20528;-66
2022/01/21 05:07:42;;;;;;;10.43;4.73;;;1.70;99.90;;;;;;5016163;28;20463;-66
2022/01/21 05:10:10;;;;;;;13.27;4.60;;;1.70;99.90;;;;;;5016286;28;20821;-66
2022/01/21 05:12:37;;;;;;;11.57;4.70;;;1.70;99.90;;;;;;5015576;28;20959;-66
2022/01/21 05:15:13;;;;;;;7.50;4.30;;;1.80;99.90;;;;;;5015292;28;20793;-65
2022/01/21 05:17:48;;;;;;;7.93;4.43;;;1.80;99.90;;;;;;5016057;28;20447;-65
2022/01/21 05:20:15;;;;;;;14.07;5.40;;;1.70;99.90;;;;;;5015507;28;20436;-66
2022/01/21 05:22:42;;;;;;;9.20;3.97;;;1.80;99.90;;;;;;5015238;28;20481;-65
2022/01/21 05:25:16;;;;;;;9.67;4.73;;;1.90;99.90;;;;;;5015375;28;20475;-65
2022/01/21 05:27:44;;;;;;;13.83;5.23;;;1.90;99.90;;;;;;5015170;28;20447;-65
2022/01/21 05:30:11;;;;;;;10.07;4.80;;;1.90;99.90;;;;;;5015063;28;20457;-66
2022/01/21 05:32:38;;;;;;;8.93;5.23;;;1.90;99.90;;;;;;5015742;28;20944;-66
2022/01/21 05:35:07;;;;;;;9.20;4.03;;;2.00;99.90;;;;;;5015961;28;20453;-66
2022/01/21 05:37:34;;;;;;;12.50;4.67;;;2.00;99.90;;;;;;5016594;28;20459;-66
2022/01/21 05:40:01;;;;;;;7.17;4.33;;;2.00;99.90;;;;;;5016874;28;20464;-65
2022/01/21 05:42:28;;;;;;;11.00;4.73;;;2.00;99.90;;;;;;5017077;28;20485;-66
2022/01/21 05:47:39;;;;;;;11.40;5.03;;;2.10;99.90;;;;;;5016379;28;20421;-66
2022/01/21 05:50:08;;;;;;;10.43;4.67;;;2.10;99.90;;;;;;5015989;28;20457;-67
2022/01/21 05:52:39;;;;;;;11.50;4.90;;;2.10;99.90;;;;;;5015090;28;20457;-66
2022/01/21 05:55:06;;;;;;;9.87;5.43;;;2.10;99.90;;;;;;5015754;28;20441;-67
2022/01/21 05:57:32;;;;;;;13.00;6.07;;;2.10;99.90;;;;;;5015525;28;20966;-67
2022/01/21 05:59:59;;;;;;;8.87;4.60;;;2.10;99.90;;;;;;5015484;28;20464;-66
2022/01/21 06:02:26;;;;;;;11.90;4.33;;;2.10;99.90;;;;;;5015150;28;20508;-66
2022/01/21 06:04:53;;;;;;;10.70;5.53;;;2.10;99.90;;;;;;5016001;28;20484;-66
2022/01/21 06:07:21;;;;;;;5.57;4.40;;;2.10;99.90;;;;;;5015635;28;20453;-66
2022/01/21 06:09:48;;;;;;;7.97;4.80;;;2.10;99.90;;;;;;5015259;28;20936;-67
2022/01/21 06:12:14;;;;;;;12.57;5.10;;;2.00;99.90;;;;;;5015719;28;20473;-66
2022/01/21 06:14:41;;;;;;;7.10;4.23;;;2.00;99.90;;;;;;5015098;28;20469;-67
2022/01/21 06:17:12;;;;;;;7.60;4.23;;;2.00;99.90;;;;;;5015675;28;20449;-67
2022/01/21 06:19:39;;;;;;;14.87;5.40;;;2.00;99.90;;;;;;5015881;28;20438;-67
2022/01/21 06:22:06;;;;;;;10.20;4.37;;;1.90;99.90;;;;;;5015946;28;20485;-66
2022/01/21 06:24:34;;;;;;;12.93;5.10;;;1.90;99.90;;;;;;5016156;28;20490;-67
2022/01/21 06:27:03;;;;;;;9.27;4.87;;;1.90;99.90;;;;;;5018401;28;20449;-67
2022/01/21 06:29:30;;;;;;;13.07;4.60;;;1.90;99.90;;;;;;5019560;28;20485;-66
2022/01/21 06:31:57;;;;;;;6.83;4.37;;;1.90;99.90;;;;;;5019386;28;20486;-67
2022/01/21 06:34:24;;;;;;;7.60;4.23;;;1.90;99.90;;;;;;5019605;28;20457;-66
2022/01/21 06:36:51;;;;;;;8.60;4.80;;;1.90;99.90;;;;;;5019074;28;20457;-66
2022/01/21 06:39:17;;;;;;;12.43;4.73;;;1.90;99.90;;;;;;5019756;28;20461;-66
2022/01/21 06:41:47;;;;;;;8.90;4.57;;;1.80;99.90;;;;;;5019459;28;20477;-66
2022/01/21 06:44:14;;;;;;;14.93;5.20;;;1.90;99.90;;;;;;5019451;28;20804;-66
2022/01/21 06:46:40;;;;;;;11.10;4.43;;;1.90;99.90;;;;;;5019014;28;20457;-66
2022/01/21 06:49:07;;;;;;;9.70;5.10;;;2.00;99.90;;;;;;5018944;28;20460;-67
2022/01/21 06:51:34;;;;;;;12.33;5.73;;;2.00;99.90;;;;;;5018975;28;20477;-68
2022/01/21 06:54:01;;;;;;;11.30;5.37;;;2.00;99.90;;;;;;5019104;28;20448;-67
2022/01/21 06:56:27;;;;;;;7.70;5.20;;;2.10;99.90;;;;;;5019290;28;20838;-68
2022/01/21 06:58:55;;;;;;;8.40;4.60;;;2.10;99.90;;;;;;5019811;28;20460;-67
2022/01/21 07:01:22;;;;;;;11.77;4.90;;;2.10;99.90;;;;;;5019050;28;20484;-68
2022/01/21 07:03:49;;;;;;;10.47;5.07;;;2.20;99.90;;;;;;5033591;28;20480;-68
2022/01/21 07:06:15;;;;;;;6.90;4.80;;;2.20;99.90;;;;;;5024428;28;20452;-68
2022/01/21 07:08:42;;;;;;;9.63;4.87;;;2.20;99.90;;;;;;5018561;28;20460;-67
2022/01/21 07:11:09;;;;;;;10.33;5.87;;;2.30;99.90;;;;;;5019051;28;20484;-66
2022/01/21 07:13:36;;;;;;;11.10;5.70;;;2.30;99.90;;;;;;5018825;28;20449;-71
2022/01/21 07:16:04;;;;;;;9.83;6.00;;;2.30;99.90;;;;;;5022125;28;20457;-68
2022/01/21 07:18:31;;;;;;;19.90;6.13;;;2.30;99.90;;;;;;5017725;28;20457;-68
2022/01/21 07:20:57;;;;;;;10.80;5.80;;;2.30;99.90;;;;;;5017567;28;20481;-68
2022/01/21 07:23:24;;;;;;;9.97;6.10;;;2.30;99.90;;;;;;5023369;28;20476;-68
2022/01/21 07:25:51;;;;;;;13.47;6.80;;;2.30;99.90;;;;;;5021042;28;20460;-69
2022/01/21 07:28:18;;;;;;;10.90;5.60;;;2.30;99.90;;;;;;5017460;28;20940;-67
2022/01/21 07:30:44;;;;;;;11.07;6.63;;;2.30;99.90;;;;;;5016828;28;20477;-67
2022/01/21 07:33:13;;;;;;;11.93;6.37;;;2.30;99.90;;;;;;5017173;28;20508;-67
2022/01/21 07:35:40;;;;;;;11.67;5.93;;;2.40;99.90;;;;;;5016765;28;20845;-68
2022/01/21 07:38:07;;;;;;;8.47;5.93;;;2.40;99.90;;;;;;5015764;28;20476;-67
2022/01/21 07:40:34;;;;;;;18.87;6.27;;;2.40;99.90;;;;;;5016984;28;20477;-67
2022/01/21 07:43:00;;;;;;;11.20;6.30;;;2.60;99.90;;;;;;5017074;28;20796;-68
2022/01/21 07:45:27;;;;;;;8.70;6.33;;;2.80;99.90;;;;;;5017070;28;20442;-68
2022/01/21 07:47:54;;;;;;;13.40;6.20;;;3.10;99.90;;;;;;5016617;28;20453;-68
2022/01/21 07:50:22;;;;;;;8.40;5.50;;;3.30;99.90;;;;;;5016620;28;20826;-68
2022/01/21 07:52:49;;;;;;;11.57;6.47;;;3.30;99.90;;;;;;5016483;28;20453;-68
2022/01/21 07:55:16;;;;;;;13.13;5.23;;;3.30;99.90;;;;;;5016452;28;20442;-67
2022/01/21 07:57:43;;;;;;;11.90;5.50;;;3.50;99.90;;;;;;5015940;28;20952;-68
2022/01/21 08:00:10;;;;;;;11.60;5.30;;;3.50;99.90;;;;;;5016082;28;20457;-68
2022/01/21 08:02:37;;;;;;;12.17;5.37;;;3.60;99.90;;;;;;5016352;28;20481;-66
2022/01/21 08:05:05;;;;;;;12.70;5.47;;;3.70;99.90;;;;;;5016433;28;20801;-68
2022/01/21 08:07:33;;;;;;;11.37;5.23;;;3.70;99.90;;;;;;5016154;28;20459;-67
2022/01/21 08:10:00;;;;;;;14.33;6.07;;;3.60;99.90;;;;;;5016262;28;20453;-69
2022/01/21 08:12:26;;;;;;;10.83;5.93;;;3.40;99.90;;;;;;5016382;28;20478;-67
2022/01/21 08:14:53;;;;;;;14.30;6.33;;;3.40;99.90;;;;;;5016053;28;20821;-68
2022/01/21 08:17:20;;;;;;;11.33;6.30;;;3.30;99.90;;;;;;5015700;28;20453;-68
2022/01/21 08:19:47;;;;;;;12.03;5.70;;;3.30;99.90;;;;;;5016082;28;20457;-67
2022/01/21 08:22:13;;;;;;;7.33;6.00;;;3.20;99.90;;;;;;5015593;28;20485;-68
2022/01/21 08:24:42;;;;;;;12.90;6.07;;;3.30;99.90;;;;;;5015959;28;20488;-68
2022/01/21 08:27:08;;;;;;;11.10;6.07;;;3.20;99.90;;;;;;5016234;28;20510;-68
2022/01/21 08:29:35;;;;;;;9.93;6.13;;;3.20;99.90;;;;;;5016029;28;20453;-67
2022/01/21 08:32:02;;;;;;;16.90;6.10;;;3.20;99.90;;;;;;5016855;28;20501;-68
2022/01/21 08:34:32;;;;;;;12.57;6.60;;;3.10;99.90;;;;;;5016298;28;20460;-68
2022/01/21 08:36:59;;;;;;;8.93;6.10;;;3.10;99.90;;;;;;5016460;28;20477;-67
2022/01/21 08:39:26;;;;;;;13.60;7.10;;;3.10;99.90;;;;;;5016617;28;20921;-68
2022/01/21 08:41:54;;;;;;;11.80;6.57;;;3.10;99.90;;;;;;5016015;28;20484;-68
2022/01/21 08:44:21;;;;;;;9.53;6.40;;;3.10;99.90;;;;;;5016400;28;20477;-68
2022/01/21 08:46:47;;;;;;;9.43;6.00;;;3.20;99.90;;;;;;5019776;28;20453;-68
2022/01/21 08:49:14;;;;;;;17.83;6.53;;;3.20;99.90;;;;;;5018513;28;20458;-69
2022/01/21 08:51:49;;;;;;;12.37;6.53;;;3.30;99.90;;;;;;5015379;28;20492;-68
2022/01/21 08:54:16;;;;;;;14.93;6.00;;;3.30;99.90;;;;;;5015754;28;20904;-67
2022/01/21 08:56:44;;;;;;;10.93;6.60;;;3.30;99.90;;;;;;5015508;28;20464;-67
2022/01/21 08:59:12;;;;;;;8.53;5.73;;;3.30;99.90;;;;;;5015823;28;20808;-67
2022/01/21 09:01:39;;;;;;;9.80;6.70;;;3.20;99.90;;;;;;5015566;28;20854;-68
2022/01/21 09:04:05;;;;;;;9.47;6.00;;;3.20;99.90;;;;;;5015258;28;20484;-68
2022/01/21 09:06:32;;;;;;;17.53;6.77;;;3.30;99.90;;;;;;5015362;28;20465;-67
2022/01/21 09:09:00;;;;;;;10.43;6.60;;;3.30;99.90;;;;;;5015758;28;20796;-67
2022/01/21 09:11:28;;;;;;;12.90;6.67;;;3.30;99.90;;;;;;5015321;28;20528;-68
2022/01/21 09:13:55;;;;;;;11.80;6.30;;;3.30;99.90;;;;;;5017366;28;20487;-67
2022/01/21 09:16:23;;;;;;;15.03;6.70;;;3.40;99.90;;;;;;5018433;28;20480;-68
2022/01/21 09:18:51;;;;;;;9.30;6.70;;;3.40;99.90;;;;;;5016402;28;20507;-68
2022/01/21 09:21:21;;;;;;;11.50;5.80;;;3.60;99.90;;;;;;5018445;28;20500;-67
2022/01/21 09:23:49;;;;;;;11.57;6.50;;;3.60;99.90;;;;;;5021232;28;20484;-68
2022/01/21 09:26:17;;;;;;;10.93;6.40;;;3.60;99.90;;;;;;5016101;28;20485;-67
2022/01/21 09:28:44;;;;;;;11.80;6.23;;;3.60;99.90;;;;;;5015960;28;20453;-68
2022/01/21 09:31:11;;;;;;;8.97;6.13;;;3.70;99.90;;;;;;5016066;28;20477;-68
2022/01/21 09:33:40;;;;;;;18.60;6.03;;;3.70;99.90;;;;;;5015205;28;20457;-67
2022/01/21 09:36:07;;;;;;;10.47;5.60;;;3.80;99.90;;;;;;5015243;28;20484;-67
2022/01/21 09:38:34;;;;;;;12.57;6.93;;;3.80;99.90;;;;;;5015945;28;20457;-68
2022/01/21 09:41:02;;;;;;;11.27;6.67;;;3.80;99.90;;;;;;5016221;28;20473;-67
2022/01/21 09:43:29;;;;;;;8.90;5.73;;;3.90;99.90;;;;;;5015982;28;20484;-68
2022/01/21 09:45:56;;;;;;;10.07;5.93;;;4.00;99.90;;;;;;5015267;28;20963;-67
2022/01/21 09:48:28;;;;;;;13.73;7.37;;;4.10;99.90;;;;;;5015542;28;20462;-67
2022/01/21 09:50:58;;;;;;;11.43;6.33;;;4.20;99.90;;;;;;5015649;28;20477;-68
2022/01/21 09:53:28;;;;;;;8.17;6.27;;;4.40;99.90;;;;;;5032089;28;20493;-68
2022/01/21 09:55:58;;;;;;;12.80;6.37;;;4.40;99.90;;;;;;5032277;28;20468;-68
2022/01/21 09:58:26;;;;;;;11.20;5.83;;;4.50;99.90;;;;;;5015723;28;20465;-68
2022/01/21 10:00:53;;;;;;;8.80;5.30;;;4.60;99.90;;;;;;5013919;28;20850;-67
2022/01/21 10:03:22;;;;;;;10.00;5.63;;;4.70;99.90;;;;;;5014353;28;20504;-67
2022/01/21 10:05:51;;;;;;;15.20;6.07;;;4.70;99.90;;;;;;5015994;28;20480;-68
2022/01/21 10:08:21;;;;;;;11.90;4.80;;;4.80;99.90;;;;;;5014305;28;20550;-68
2022/01/21 10:10:48;;;;;;;12.93;5.40;;;4.70;99.90;;;;;;5014286;28;20473;-67
2022/01/21 10:13:18;;;;;;;10.73;5.77;;;4.50;99.90;;;;;;5014420;28;20456;-67
2022/01/21 10:15:45;;;;;;;11.13;5.27;;;4.40;99.90;;;;;;5014397;28;20464;-68
2022/01/21 10:18:13;;;;;;;11.77;5.23;;;4.40;99.90;;;;;;5014828;28;20453;-67
2022/01/21 10:21:00;;;;;;;11.00;5.37;;;4.30;99.90;;;;;;5014889;28;20477;-68
2022/01/21 10:23:30;;;;;;;8.00;5.20;;;4.40;99.90;;;;;;5014247;28;20468;-68
2022/01/21 10:26:03;;;;;;;13.37;5.10;;;4.40;99.90;;;;;;5014207;28;20460;-67
2022/01/21 10:28:31;;;;;;;8.47;4.73;;;4.20;99.90;;;;;;5014216;28;20449;-68
2022/01/21 10:31:14;;;;;;;12.87;6.43;;;4.10;99.90;;;;;;5014063;28;20473;-67
2022/01/21 10:33:44;;;;;;;8.70;4.80;;;4.00;99.90;;;;;;5013911;28;20528;-67
2022/01/21 10:36:16;;;;;;;7.87;5.80;;;4.10;99.90;;;;;;5013862;28;20453;-67
2022/01/21 10:38:46;;;;;;;13.70;4.77;;;4.30;99.90;;;;;;5013926;28;20966;-68
2022/01/21 10:41:15;;;;;;;12.60;5.47;;;4.30;99.90;;;;;;5013550;28;20478;-68
2022/01/21 10:43:42;;;;;;;18.40;6.73;;;4.50;99.90;;;;;;5014075;28;20477;-68
2022/01/21 10:46:14;;;;;;;15.90;5.73;;;4.60;99.90;;;;;;5014510;28;20464;-68
2022/01/21 10:48:59;;;;;;;6.83;4.40;;;4.70;99.90;;;;;;5013832;28;20453;-68
2022/01/21 10:51:28;;;;;;;17.37;5.30;;;4.90;99.90;;;;;;5013847;28;20477;-68
2022/01/21 10:53:57;;;;;;;12.47;5.60;;;5.00;99.90;;;;;;5015364;28;20467;-67
2022/01/21 10:56:25;;;;;;;9.27;4.80;;;4.90;99.90;;;;;;5013965;28;20448;-67
2022/01/21 10:58:56;;;;;;;8.20;5.00;;;5.00;99.90;;;;;;5014816;28;20847;-68
2022/01/21 11:01:27;;;;;;;10.97;5.77;;;5.10;99.90;;;;;;5013432;28;20520;-67
2022/01/21 11:04:04;;;;;;;11.63;4.60;;;5.10;99.90;;;;;;5014671;28;20475;-67
2022/01/21 11:06:38;;;;;;;9.70;4.87;;;5.20;99.90;;;;;;5013600;28;20963;-67
2022/01/21 11:09:21;;;;;;;8.37;5.20;;;5.40;99.90;;;;;;5013591;28;20437;-67
2022/01/21 11:11:49;;;;;;;9.67;4.37;;;5.40;99.90;;;;;;5013444;28;20480;-67
2022/01/21 11:14:17;;;;;;;12.13;4.80;;;5.50;99.90;;;;;;5016287;28;20907;-68
2022/01/21 11:16:47;;;;;;;8.13;4.20;;;5.30;99.90;;;;;;5017347;28;20457;-67
2022/01/21 11:19:16;;;;;;;9.60;4.80;;;5.20;99.90;;;;;;5016752;28;20479;-68
2022/01/21 11:21:51;;;;;;;12.40;4.77;;;5.20;99.90;;;;;;5017059;28;20484;-68
2022/01/21 11:24:21;;;;;;;9.10;4.90;;;5.10;99.90;;;;;;5017209;28;20461;-68
2022/01/21 11:27:07;;;;;;;7.27;4.40;;;5.10;99.90;;;;;;5017261;28;20495;-68
2022/01/21 11:29:34;;;;;;;10.10;4.60;;;5.10;99.90;;;;;;5017236;28;20433;-67
2022/01/21 11:32:01;;;;;;;6.23;4.30;;;5.10;99.90;;;;;;5016880;28;20477;-68
2022/01/21 11:34:28;;;;;;;8.80;4.03;;;5.20;99.90;;;;;;5017086;28;20449;-68
2022/01/21 11:36:55;;;;;;;10.27;4.30;;;5.20;99.90;;;;;;5017094;28;20450;-68
2022/01/21 11:39:25;;;;;;;6.10;4.50;;;5.20;99.90;;;;;;5017221;28;20456;-67
2022/01/21 11:41:55;;;;;;;7.57;4.53;;;5.20;99.90;;;;;;5016856;28;20968;-68
2022/01/21 11:44:23;;;;;;;14.20;4.13;;;5.20;99.90;;;;;;5016719;28;20483;-68
2022/01/21 11:47:02;;;;;;;7.67;4.07;;;5.20;99.90;;;;;;5017053;28;20453;-67
2022/01/21 11:49:32;;;;;;;7.60;4.90;;;5.10;99.90;;;;;;5017163;28;20448;-67
2022/01/21 11:52:10;;;;;;;7.87;4.30;;;5.00;99.90;;;;;;5017833;28;20516;-67
2022/01/21 11:54:39;;;;;;;13.90;4.40;;;4.90;99.90;;;;;;5017753;28;20453;-68
2022/01/21 11:57:07;;;;;;;7.33;4.67;;;4.90;99.90;;;;;;5016741;28;20453;-68
2022/01/21 11:59:42;;;;;;;4.63;3.60;;;4.80;99.90;;;;;;5016720;28;20480;-68
2022/01/21 12:02:25;;;;;;;10.27;4.77;;;4.80;99.90;;;;;;5016363;28;20481;-67
2022/01/21 12:04:53;;;;;;;8.70;3.77;;;4.80;99.90;;;;;;5016614;28;20505;-67
2022/01/21 12:07:51;;;;;;;13.63;5.50;;;4.80;99.90;;;;;;5016787;28;20460;-67
2022/01/21 12:10:33;;;;;;;7.23;4.23;;;4.80;99.90;;;;;;5016336;28;20904;-68
2022/01/21 12:13:10;;;;;;;9.53;4.40;;;4.80;99.90;;;;;;5017159;28;20476;-67
2022/01/21 12:16:20;;;;;;;8.20;4.03;;;4.80;99.90;;;;;;5016210;28;20429;-68
2022/01/21 12:21:53;;;;;;;12.57;4.80;;;4.80;99.90;;;;;;5016109;28;20540;-68
2022/01/21 12:24:46;;;;;;;13.23;4.00;;;4.90;99.90;;;;;;5015995;28;20481;-68
2022/01/21 12:27:14;;;;;;;5.00;3.40;;;5.00;99.90;;;;;;5016212;28;20461;-68
2022/01/21 12:29:41;;;;;;;6.97;3.53;;;5.20;99.90;;;;;;5015816;28;20952;-69
2022/01/21 12:32:16;;;;;;;8.07;3.47;;;5.40;99.90;;;;;;5016141;28;20477;-68
2022/01/21 12:35:05;;;;;;;7.57;3.70;;;5.50;99.90;;;;;;5016098;28;20432;-69
2022/01/21 12:37:39;;;;;;;10.50;3.50;;;5.60;99.90;;;;;;5015865;28;20537;-68
2022/01/21 12:40:07;;;;;;;7.00;3.73;;;5.60;99.90;;;;;;5015850;28;20495;-68
2022/01/21 12:42:36;;;;;;;12.97;4.03;;;5.60;99.90;;;;;;5015524;28;20903;-68
2022/01/21 12:45:24;;;;;;;12.43;6.00;;;5.80;99.90;;;;;;5015677;28;20882;-68
2022/01/21 12:47:51;;;;;;;5.57;3.20;;;6.00;99.90;;;;;;5016237;28;20831;-68
2022/01/21 12:50:29;;;;;;;9.60;3.17;;;6.00;99.90;;;;;;5016347;28;20909;-68
2022/01/21 12:53:13;;;;;;;10.00;3.47;;;6.10;99.90;;;;;;5016566;28;20463;-68
2022/01/21 12:55:59;;;;;;;13.53;3.33;;;6.00;99.90;;;;;;5015609;28;20444;-68
2022/01/21 12:58:29;;;;;;;8.60;3.13;;;5.90;99.90;;;;;;5015791;28;20449;-67
2022/01/21 13:00:57;;;;;;;16.47;4.20;;;5.90;99.90;;;;;;5016523;28;20495;-68
2022/01/21 13:03:28;;;;;;;16.40;4.30;;;5.90;99.90;;;;;;5015827;28;20503;-67
2022/01/21 13:06:07;;;;;;;7.87;3.23;;;5.80;99.90;;;;;;5015850;28;20501;-68
2022/01/21 13:08:44;;;;;;;8.63;3.70;;;5.70;99.90;;;;;;5017118;28;20445;-68
2022/01/21 13:11:19;;;;;;;3.67;2.53;;;5.70;99.90;;;;;;5015448;28;20509;-68
2022/01/21 13:13:53;;;;;;;11.10;3.37;;;5.60;99.90;;;;;;5015601;28;20437;-67
2022/01/21 13:16:30;;;;;;;9.43;3.10;;;5.60;99.90;;;;;;5015869;28;20433;-68
2022/01/21 13:19:02;;;;;;;6.27;2.73;;;5.30;99.90;;;;;;5014598;28;20457;-68
2022/01/21 13:21:28;;;;;;;6.00;2.20;;;5.30;99.90;;;;;;5014988;28;20473;-68
2022/01/21 13:23:57;;;;;;;10.70;3.40;;;5.30;99.90;;;;;;5014821;28;20944;-68
2022/01/21 13:26:27;;;;;;;6.30;3.17;;;5.30;99.90;;;;;;5015442;28;20464;-68
2022/01/21 13:29:04;;;;;;;10.70;3.07;;;5.30;99.90;;;;;;5015432;28;20457;-68
2022/01/21 13:31:33;;;;;;;6.93;3.17;;;5.30;99.90;;;;;;5015099;28;20477;-68
2022/01/21 13:34:12;;;;;;;9.00;3.17;;;5.30;99.90;;;;;;5014770;28;20952;-68
2022/01/21 13:36:44;;;;;;;6.10;3.13;;;5.40;99.90;;;;;;5014533;28;20441;-68
2022/01/21 13:39:14;;;;;;;9.77;3.33;;;5.30;99.90;;;;;;5015044;28;20461;-68
2022/01/21 13:42:00;;;;;;;13.60;3.80;;;5.30;99.90;;;;;;5014511;28;20473;-68
2022/01/21 13:44:41;;;;;;;8.27;2.83;;;5.30;99.90;;;;;;5014761;28;20462;-68
2022/01/21 13:47:25;;;;;;;8.07;3.33;;;5.40;99.90;;;;;;5014733;28;20996;-69
2022/01/21 13:49:52;;;;;;;10.80;2.90;;;5.40;99.90;;;;;;5014926;28;20448;-68
2022/01/21 13:52:19;;;;;;;10.00;2.90;;;5.30;99.90;;;;;;5014744;28;20477;-68
2022/01/21 13:54:48;;;;;;;6.30;2.57;;;5.40;99.90;;;;;;5014727;28;20460;-68
2022/01/21 13:57:15;;;;;;;7.40;4.10;;;5.40;99.90;;;;;;5014642;28;20457;-68
2022/01/21 13:59:45;;;;;;;5.80;2.97;;;5.40;99.90;;;;;;5014343;28;20457;-68
2022/01/21 14:02:15;;;;;;;9.07;2.90;;;5.40;99.90;;;;;;5014166;28;20495;-68
2022/01/21 14:04:54;;;;;;;8.27;3.00;;;5.40;99.90;;;;;;5014968;28;20480;-68
2022/01/21 14:07:25;;;;;;;6.50;2.90;;;5.40;99.90;;;;;;5014319;28;20477;-68
2022/01/21 14:09:52;;;;;;;5.50;3.33;;;5.40;99.90;;;;;;5014208;28;20438;-68
2022/01/21 14:12:18;;;;;;;11.47;3.57;;;5.40;99.90;;;;;;5014104;28;20477;-68
2022/01/21 14:14:49;;;;;;;10.57;3.60;;;5.20;99.90;;;;;;5014043;28;20460;-67
2022/01/21 14:17:16;;;;;;;5.27;2.80;;;5.30;99.90;;;;;;5013940;28;20998;-68
2022/01/21 14:19:43;;;;;;;11.27;3.57;;;5.30;99.90;;;;;;5014422;28;20453;-67
2022/01/21 14:22:12;;;;;;;5.30;3.33;;;5.30;99.90;;;;;;5013891;28;20527;-67
2022/01/21 14:24:43;;;;;;;8.60;2.90;;;5.40;99.90;;;;;;5014016;28;20477;-67
2022/01/21 14:27:23;;;;;;;7.83;2.80;;;5.40;99.90;;;;;;5013640;28;20464;-67
2022/01/21 14:29:55;;;;;;;6.10;2.80;;;5.50;99.90;;;;;;5014648;28;20445;-68
2022/01/21 14:32:28;;;;;;;9.53;4.17;;;5.40;99.90;;;;;;5013807;28;20998;-68
2022/01/21 14:35:09;;;;;;;4.50;2.67;;;5.40;99.90;;;;;;5013655;28;20496;-67
2022/01/21 14:37:38;;;;;;;9.43;3.10;;;5.30;99.90;;;;;;5013815;28;20441;-67
2022/01/21 14:40:06;;;;;;;9.07;2.97;;;5.20;99.90;;;;;;5013831;28;20477;-67
2022/01/21 14:42:33;;;;;;;8.10;3.33;;;5.10;99.90;;;;;;5013642;28;20473;-67
2022/01/21 14:45:10;;;;;;;7.93;3.57;;;5.20;99.90;;;;;;5013696;28;20465;-67
2022/01/21 14:47:37;;;;;;;10.87;3.33;;;5.10;99.90;;;;;;5015940;28;20449;-66
2022/01/21 14:50:08;;;;;;;9.03;2.90;;;5.00;99.90;;;;;;5017548;28;20459;-67
2022/01/21 14:52:43;;;;;;;6.33;2.97;;;5.00;99.90;;;;;;5017773;28;20477;-68
2022/01/21 14:55:21;;;;;;;7.23;2.77;;;5.00;99.90;;;;;;5017541;28;20792;-68
2022/01/21 14:57:54;;;;;;;6.20;3.07;;;4.90;99.90;;;;;;5017713;28;20445;-69
2022/01/21 15:00:28;;;;;;;11.10;3.60;;;4.80;99.90;;;;;;5018500;28;20774;-68
2022/01/21 15:03:13;;;;;;;9.63;3.17;;;4.70;99.90;;;;;;5017439;28;20441;-66
2022/01/21 15:05:42;;;;;;;7.10;2.70;;;4.70;99.90;;;;;;5017271;28;20460;-67
2022/01/21 15:08:14;;;;;;;5.83;2.50;;;4.70;99.90;;;;;;5016889;28;21011;-67
2022/01/21 15:10:43;;;;;;;3.80;3.20;;;4.70;99.90;;;;;;5016942;28;20567;-67
2022/01/21 15:16:15;;;;;;;6.03;2.40;;;4.70;99.90;;;;;;5017148;28;20452;-68
2022/01/21 15:18:42;;;;;;;8.27;3.23;;;4.60;99.90;;;;;;5017149;28;20465;-68
2022/01/21 15:21:18;;;;;;;11.60;3.30;;;4.60;99.90;;;;;;5016879;28;20479;-67
2022/01/21 15:23:46;;;;;;;10.70;3.00;;;4.50;99.90;;;;;;5016837;28;20453;-67
2022/01/21 15:26:16;;;;;;;11.27;4.27;;;4.50;99.90;;;;;;5016512;28;20515;-69
2022/01/21 15:28:42;;;;;;;6.47;3.60;;;4.50;99.90;;;;;;5016775;28;20560;-66
2022/01/21 15:31:09;;;;;;;6.80;2.90;;;4.40;99.90;;;;;;5016676;28;20499;-68
2022/01/21 15:33:37;;;;;;;3.40;3.10;;;4.40;99.90;;;;;;5016624;28;20453;-68
2022/01/21 15:36:05;;;;;;;9.77;3.00;;;4.40;99.90;;;;;;5016746;28;20457;-68
2022/01/21 15:38:32;;;;;;;6.90;3.20;;;4.40;99.90;;;;;;5016742;28;20460;-68
2022/01/21 15:40:59;;;;;;;9.57;3.33;;;4.50;99.90;;;;;;5016577;28;20477;-68
2022/01/21 15:43:26;;;;;;;6.10;3.70;;;4.50;99.90;;;;;;5016503;28;20465;-67
2022/01/21 15:45:52;;;;;;;13.33;4.13;;;4.50;99.90;;;;;;5016409;28;20477;-67
2022/01/21 15:48:19;;;;;;;12.70;3.90;;;4.50;99.90;;;;;;5016736;28;20464;-67
2022/01/21 15:50:49;;;;;;;10.13;3.50;;;4.50;99.90;;;;;;5016407;28;20496;-66
2022/01/21 15:53:16;;;;;;;8.03;3.07;;;4.50;99.90;;;;;;5016468;28;20472;-67
2022/01/21 15:55:43;;;;;;;4.90;2.90;;;4.50;99.90;;;;;;5016496;28;20454;-67
2022/01/21 15:58:09;;;;;;;7.00;2.60;;;4.40;99.90;;;;;;5015805;28;20461;-67
2022/01/21 16:00:36;;;;;;;5.53;2.73;;;4.40;99.90;;;;;;5016020;28;20468;-68
2022/01/21 16:03:05;;;;;;;14.17;3.47;;;4.40;99.90;;;;;;5016396;28;20438;-67
2022/01/21 16:05:32;;;;;;;4.67;2.63;;;4.40;99.90;;;;;;5016319;28;20575;-67
2022/01/21 16:08:00;;;;;;;5.10;2.80;;;4.40;99.90;;;;;;5016047;28;20485;-67
2022/01/21 16:10:28;;;;;;;4.93;2.90;;;4.40;99.90;;;;;;5016549;28;20453;-68
2022/01/21 16:12:57;;;;;;;6.53;3.00;;;4.40;99.90;;;;;;5016370;28;20507;-67
2022/01/21 16:15:25;;;;;;;7.10;3.37;;;4.40;99.90;;;;;;5016369;28;20449;-66
2022/01/21 16:17:51;;;;;;;6.40;3.07;;;4.40;99.90;;;;;;5016120;28;20476;-67
2022/01/21 16:20:18;;;;;;;9.40;3.33;;;4.40;99.90;;;;;;5016221;28;20449;-67
2022/01/21 16:22:45;;;;;;;8.63;3.43;;;4.30;99.90;;;;;;5016051;28;20449;-67
2022/01/21 16:25:13;;;;;;;9.23;3.30;;;4.30;99.90;;;;;;5016011;28;20473;-66
2022/01/21 16:27:40;;;;;;;6.27;3.60;;;4.30;99.90;;;;;;5015864;28;20484;-69
2022/01/21 16:30:09;;;;;;;7.20;3.13;;;4.20;99.90;;;;;;5015744;28;20458;-67
2022/01/21 16:32:36;;;;;;;7.03;3.07;;;4.20;99.90;;;;;;5015973;28;20485;-66
2022/01/21 16:35:04;;;;;;;9.77;3.97;;;4.30;99.90;;;;;;5015627;28;20453;-68
2022/01/21 16:37:31;;;;;;;6.73;3.37;;;4.20;99.90;;;;;;5015685;28;20457;-67
2022/01/21 16:40:03;;;;;;;9.00;4.00;;;4.20;99.90;;;;;;5015322;28;20453;-68
2022/01/21 16:42:33;;;;;;;8.00;3.03;;;4.20;99.90;;;;;;5015247;28;20473;-69
2022/01/21 16:45:01;;;;;;;4.33;3.83;;;4.20;99.90;;;;;;5015486;28;20442;-68
2022/01/21 16:47:28;;;;;;;14.70;5.23;;;4.20;99.90;;;;;;5015206;28;20467;-67
2022/01/21 16:49:55;;;;;;;8.77;3.50;;;4.20;99.90;;;;;;5015083;28;20463;-66
2022/01/21 16:52:21;;;;;;;6.90;3.50;;;4.20;99.90;;;;;;5015149;28;20852;-68
2022/01/21 16:54:49;;;;;;;6.97;3.07;;;4.20;99.90;;;;;;5015270;28;20458;-67
2022/01/21 16:57:16;;;;;;;7.63;3.50;;;4.10;99.90;;;;;;5015300;28;20449;-67
2022/01/21 16:59:45;;;;;;;11.83;3.33;;;4.10;99.90;;;;;;5015266;28;20457;-67
2022/01/21 17:02:12;;;;;;;9.37;4.53;;;4.10;99.90;;;;;;5015130;28;20489;-67
2022/01/21 17:04:39;;;;;;;6.47;3.27;;;4.00;99.90;;;;;;5015146;28;20529;-67
2022/01/21 17:07:07;;;;;;;8.90;3.33;;;4.00;99.90;;;;;;5015145;28;20473;-67
2022/01/21 17:09:33;;;;;;;12.30;3.67;;;4.00;99.90;;;;;;5014967;28;20457;-67
2022/01/21 17:12:00;;;;;;;11.30;3.70;;;4.00;99.90;;;;;;5013895;28;20477;-67
2022/01/21 17:14:27;;;;;;;8.53;2.80;;;4.00;99.90;;;;;;5015116;28;20461;-67
2022/01/21 17:16:55;;;;;;;9.80;3.00;;;4.00;99.90;;;;;;5015014;28;20453;-67
2022/01/21 17:19:22;;;;;;;9.17;3.67;;;4.00;99.90;;;;;;5014987;28;20460;-67
2022/01/21 17:21:48;;;;;;;7.60;3.90;;;3.90;99.90;;;;;;5015242;28;20477;-67
2022/01/21 17:24:17;;;;;;;6.50;3.30;;;3.90;99.90;;;;;;5014695;28;20967;-67
2022/01/21 17:26:44;;;;;;;9.63;3.27;;;3.90;99.90;;;;;;5014611;28;20477;-66
2022/01/21 17:29:11;;;;;;;5.70;2.73;;;3.90;99.90;;;;;;5015063;28;20457;-66
2022/01/21 17:31:38;;;;;;;8.30;2.73;;;3.90;99.90;;;;;;5015248;28;20580;-66
2022/01/21 17:34:06;;;;;;;10.40;3.63;;;3.90;99.90;;;;;;5014871;28;20829;-66
2022/01/21 17:36:33;;;;;;;4.23;2.50;;;4.00;99.90;;;;;;5014857;28;20461;-66
2022/01/21 17:39:00;;;;;;;6.23;3.10;;;4.00;99.90;;;;;;5014880;28;20457;-67
2022/01/21 17:41:27;;;;;;;6.80;3.33;;;4.00;99.90;;;;;;5014709;28;20484;-67
2022/01/21 17:43:57;;;;;;;8.17;2.90;;;4.00;99.90;;;;;;5014660;28;20457;-66
2022/01/21 17:46:25;;;;;;;5.00;3.07;;;4.00;99.90;;;;;;5014506;28;20461;-66
2022/01/21 17:48:52;;;;;;;5.37;3.30;;;4.00;99.90;;;;;;5014789;28;20457;-66
2022/01/21 17:51:20;;;;;;;8.17;4.60;;;4.00;99.90;;;;;;5014613;28;20477;-65
2022/01/21 17:53:48;;;;;;;7.00;3.37;;;4.00;99.90;;;;;;5014562;28;20488;-66
2022/01/21 17:56:15;;;;;;;8.10;3.40;;;4.10;99.90;;;;;;5014384;28;20484;-66
2022/01/21 17:58:42;;;;;;;9.80;3.47;;;4.10;99.90;;;;;;5013977;28;20834;-67
2022/01/21 18:01:08;;;;;;;9.77;4.37;;;4.10;99.90;;;;;;5014237;28;20477;-66
2022/01/21 18:03:35;;;;;;;4.70;3.10;;;4.10;99.90;;;;;;5016271;28;20461;-66
2022/01/21 18:06:03;;;;;;;9.17;3.10;;;4.10;99.90;;;;;;5014736;28;20987;-67
2022/01/21 18:08:33;;;;;;;8.03;3.30;;;4.10;99.90;;;;;;5014031;28;20453;-66
2022/01/21 18:11:04;;;;;;;5.97;2.80;;;4.10;99.90;;;;;;5014097;28;20484;-67
2022/01/21 18:13:32;;;;;;;8.40;3.00;;;4.10;99.90;;;;;;5013821;28;20438;-68